sensor_id;sensor_type;location;lat;lon;timestamp;temperature;humidity
5588;DHT22;2816;49.778;9.986;2024-03-08T00:00:18;2.70;99.90
5588;DHT22;2816;49.778;9.986;2024-03-08T00:02:45;2.60;99.90
5588;DHT22;2816;49.778;9.986;2024-03-08T00:05:13;2.60;99.90
5588;DHT22;2816;49.778;9.986;2024-03-08T00:07:41;2.70;99.90
5588;DHT22;2816;49.778;9.986;2024-03-08T00:10:10;2.70;99.90
5588;DHT22;2816;49.778;9.986;2024-03-08T00:12:39;2.70;99.90
5588;DHT22;2816;49.778;9.986;2024-03-08T00:15:09;2.60;99.90
5588;DHT22;2816;49.778;9.986;2024-03-08T00:17:36;2.70;99.90
5588;DHT22;2816;49.778;9.986;2024-03-08T00:20:04;2.70;99.90
5588;DHT22;2816;49.778;9.986;2024-03-08T00:22:33;2.70;99.90
5588;DHT22;2816;49.778;9.986;2024-03-08T00:25:01;2.50;99.90
5588;DHT22;2816;49.778;9.986;2024-03-08T00:27:29;2.60;99.90
5588;DHT22;2816;49.778;9.986;2024-03-08T00:29:56;2.50;99.90
5588;DHT22;2816;49.778;9.986;2024-03-08T00:32:25;2.50;99.90
5588;DHT22;2816;49.778;9.986;2024-03-08T00:34:53;2.50;99.90
5588;DHT22;2816;49.778;9.986;2024-03-08T00:37:21;2.50;99.90
5588;DHT22;2816;49.778;9.986;2024-03-08T00:39:48;2.50;99.90
5588;DHT22;2816;49.778;9.986;2024-03-08T00:42:15;2.50;99.90
5588;DHT22;2816;49.778;9.986;2024-03-08T00:44:42;2.50;99.90
5588;DHT22;2816;49.778;9.986;2024-03-08T00:47:09;2.40;99.90
5588;DHT22;2816;49.778;9.986;2024-03-08T00:49:37;2.40;99.90
5588;DHT22;2816;49.778;9.986;2024-03-08T00:52:05;2.30;99.90
5588;DHT22;2816;49.778;9.986;2024-03-08T00:54:33;2.30;99.90
5588;DHT22;2816;49.778;9.986;2024-03-08T00:57:01;2.30;99.90
5588;DHT22;2816;49.778;9.986;2024-03-08T00:59:29;2.20;99.90
5588;DHT22;2816;49.778;9.986;2024-03-08T01:01:58;2.20;99.90
5588;DHT22;2816;49.778;9.986;2024-03-08T01:04:25;2.10;99.90
5588;DHT22;2816;49.778;9.986;2024-03-08T01:06:55;2.10;99.90
5588;DHT22;2816;49.778;9.986;2024-03-08T01:09:22;2.00;99.90
5588;DHT22;2816;49.778;9.986;2024-03-08T01:11:49;2.00;99.90
5588;DHT22;2816;49.778;9.986;2024-03-08T01:14:16;2.10;99.90
5588;DHT22;2816;49.778;9.986;2024-03-08T01:16:43;2.10;99.90
5588;DHT22;2816;49.778;9.986;2024-03-08T01:19:10;2.10;99.90
5588;DHT22;2816;49.778;9.986;2024-03-08T01:21:38;2.10;99.90
5588;DHT22;2816;49.778;9.986;2024-03-08T01:24:06;2.00;99.90
5588;DHT22;2816;49.778;9.986;2024-03-08T01:26:33;2.00;99.90
5588;DHT22;2816;49.778;9.986;2024-03-08T01:29:01;2.10;99.90
5588;DHT22;2816;49.778;9.986;2024-03-08T01:31:28;2.10;99.90
5588;DHT22;2816;49.778;9.986;2024-03-08T01:33:55;2.10;99.90
5588;DHT22;2816;49.778;9.986;2024-03-08T01:36:22;2.10;99.90
5588;DHT22;2816;49.778;9.986;2024-03-08T01:38:50;2.10;99.90
5588;DHT22;2816;49.778;9.986;2024-03-08T01:41:18;2.10;99.90
5588;DHT22;2816;49.778;9.986;2024-03-08T01:43:45;2.20;99.90
5588;DHT22;2816;49.778;9.986;2024-03-08T01:46:15;2.30;99.90
5588;DHT22;2816;49.778;9.986;2024-03-08T01:48:43;2.10;99.90
5588;DHT22;2816;49.778;9.986;2024-03-08T01:51:11;2.10;99.90
5588;DHT22;2816;49.778;9.986;2024-03-08T01:53:40;2.10;99.90
5588;DHT22;2816;49.778;9.986;2024-03-08T01:56:11;2.20;99.90
5588;DHT22;2816;49.778;9.986;2024-03-08T01:58:41;2.10;99.90
5588;DHT22;2816;49.778;9.986;2024-03-08T02:01:11;2.00;99.90
5588;DHT22;2816;49.778;9.986;2024-03-08T02:03:38;2.00;99.90
5588;DHT22;2816;49.778;9.986;2024-03-08T02:06:05;1.90;99.90
5588;DHT22;2816;49.778;9.986;2024-03-08T02:08:35;1.90;99.90
5588;DHT22;2816;49.778;9.986;2024-03-08T02:11:03;1.80;99.90
5588;DHT22;2816;49.778;9.986;2024-03-08T02:13:30;1.80;99.90
5588;DHT22;2816;49.778;9.986;2024-03-08T02:16:00;1.80;99.90
5588;DHT22;2816;49.778;9.986;2024-03-08T02:18:28;1.80;99.90
5588;DHT22;2816;49.778;9.986;2024-03-08T02:20:57;1.80;99.90
5588;DHT22;2816;49.778;9.986;2024-03-08T02:23:24;1.80;99.90
5588;DHT22;2816;49.778;9.986;2024-03-08T02:25:55;1.80;99.90
5588;DHT22;2816;49.778;9.986;2024-03-08T02:28:23;1.80;99.90
5588;DHT22;2816;49.778;9.986;2024-03-08T02:30:51;1.80;99.90
5588;DHT22;2816;49.778;9.986;2024-03-08T02:33:20;1.70;99.90
5588;DHT22;2816;49.778;9.986;2024-03-08T02:35:47;1.80;99.90
5588;DHT22;2816;49.778;9.986;2024-03-08T02:38:17;1.80;99.90
5588;DHT22;2816;49.778;9.986;2024-03-08T02:40:45;1.70;99.90
5588;DHT22;2816;49.778;9.986;2024-03-08T02:43:12;1.70;99.90
5588;DHT22;2816;49.778;9.986;2024-03-08T02:45:40;1.70;99.90
5588;DHT22;2816;49.778;9.986;2024-03-08T02:48:09;1.60;99.90
5588;DHT22;2816;49.778;9.986;2024-03-08T02:50:36;1.50;99.90
5588;DHT22;2816;49.778;9.986;2024-03-08T02:53:05;1.50;99.90
5588;DHT22;2816;49.778;9.986;2024-03-08T02:55:34;1.40;99.90
5588;DHT22;2816;49.778;9.986;2024-03-08T02:58:02;1.40;99.90
5588;DHT22;2816;49.778;9.986;2024-03-08T03:00:30;1.40;99.90
5588;DHT22;2816;49.778;9.986;2024-03-08T03:02:58;1.40;99.90
5588;DHT22;2816;49.778;9.986;2024-03-08T03:05:25;1.30;99.90
5588;DHT22;2816;49.778;9.986;2024-03-08T03:07:52;1.30;99.90
5588;DHT22;2816;49.778;9.986;2024-03-08T03:10:19;1.20;99.90
5588;DHT22;2816;49.778;9.986;2024-03-08T03:12:49;1.20;99.90
5588;DHT22;2816;49.778;9.986;2024-03-08T03:15:17;1.20;99.90
5588;DHT22;2816;49.778;9.986;2024-03-08T03:17:46;1.20;99.90
5588;DHT22;2816;49.778;9.986;2024-03-08T03:20:13;1.20;99.90
5588;DHT22;2816;49.778;9.986;2024-03-08T03:22:48;1.20;99.90
5588;DHT22;2816;49.778;9.986;2024-03-08T03:25:17;1.20;99.90
5588;DHT22;2816;49.778;9.986;2024-03-08T03:27:50;1.30;99.90
5588;DHT22;2816;49.778;9.986;2024-03-08T03:30:17;1.30;99.90
5588;DHT22;2816;49.778;9.986;2024-03-08T03:32:52;1.20;99.90
5588;DHT22;2816;49.778;9.986;2024-03-08T03:35:20;1.20;99.90
5588;DHT22;2816;49.778;9.986;2024-03-08T03:37:48;1.10;99.90
5588;DHT22;2816;49.778;9.986;2024-03-08T03:40:27;1.20;99.90
5588;DHT22;2816;49.778;9.986;2024-03-08T03:42:55;1.20;99.90
5588;DHT22;2816;49.778;9.986;2024-03-08T03:45:22;1.20;99.90
5588;DHT22;2816;49.778;9.986;2024-03-08T03:47:49;1.20;99.90
5588;DHT22;2816;49.778;9.986;2024-03-08T03:50:17;1.20;99.90
5588;DHT22;2816;49.778;9.986;2024-03-08T03:52:44;1.20;99.90
5588;DHT22;2816;49.778;9.986;2024-03-08T03:55:12;1.20;99.90
5588;DHT22;2816;49.778;9.986;2024-03-08T03:57:39;1.30;99.90
5588;DHT22;2816;49.778;9.986;2024-03-08T04:00:08;1.30;99.90
5588;DHT22;2816;49.778;9.986;2024-03-08T04:02:37;1.20;99.90
5588;DHT22;2816;49.778;9.986;2024-03-08T04:05:04;1.20;99.90
5588;DHT22;2816;49.778;9.986;2024-03-08T04:07:31;1.20;99.90
5588;DHT22;2816;49.778;9.986;2024-03-08T04:09:58;1.20;99.90
5588;DHT22;2816;49.778;9.986;2024-03-08T04:12:26;1.20;99.90
5588;DHT22;2816;49.778;9.986;2024-03-08T04:14:54;1.20;99.90
5588;DHT22;2816;49.778;9.986;2024-03-08T04:17:23;1.10;99.90
5588;DHT22;2816;49.778;9.986;2024-03-08T04:19:50;1.10;99.90
5588;DHT22;2816;49.778;9.986;2024-03-08T04:22:18;1.10;99.90
5588;DHT22;2816;49.778;9.986;2024-03-08T04:24:45;1.10;99.90
5588;DHT22;2816;49.778;9.986;2024-03-08T04:27:12;1.10;99.90
5588;DHT22;2816;49.778;9.986;2024-03-08T04:29:39;1.00;99.90
5588;DHT22;2816;49.778;9.986;2024-03-08T04:32:07;1.00;99.90
5588;DHT22;2816;49.778;9.986;2024-03-08T04:34:35;1.00;99.90
5588;DHT22;2816;49.778;9.986;2024-03-08T04:37:03;1.00;99.90
5588;DHT22;2816;49.778;9.986;2024-03-08T04:39:31;1.00;99.90
5588;DHT22;2816;49.778;9.986;2024-03-08T04:42:00;1.00;99.90
5588;DHT22;2816;49.778;9.986;2024-03-08T04:44:29;1.00;99.90
5588;DHT22;2816;49.778;9.986;2024-03-08T04:46:57;1.00;99.90
5588;DHT22;2816;49.778;9.986;2024-03-08T04:49:25;1.00;99.90
5588;DHT22;2816;49.778;9.986;2024-03-08T04:51:55;1.00;99.90
5588;DHT22;2816;49.778;9.986;2024-03-08T04:54:22;1.00;99.90
5588;DHT22;2816;49.778;9.986;2024-03-08T04:56:49;1.00;99.90
5588;DHT22;2816;49.778;9.986;2024-03-08T04:59:16;1.00;99.90
5588;DHT22;2816;49.778;9.986;2024-03-08T05:01:43;1.00;99.90
5588;DHT22;2816;49.778;9.986;2024-03-08T05:04:10;1.00;99.90
5588;DHT22;2816;49.778;9.986;2024-03-08T05:06:37;1.00;99.90
5588;DHT22;2816;49.778;9.986;2024-03-08T05:09:05;1.00;99.90
5588;DHT22;2816;49.778;9.986;2024-03-08T05:11:39;1.00;99.90
5588;DHT22;2816;49.778;9.986;2024-03-08T05:14:05;1.00;99.90
5588;DHT22;2816;49.778;9.986;2024-03-08T05:16:33;1.00;99.90
5588;DHT22;2816;49.778;9.986;2024-03-08T05:18:59;1.00;99.90
5588;DHT22;2816;49.778;9.986;2024-03-08T05:21:26;1.00;99.90
5588;DHT22;2816;49.778;9.986;2024-03-08T05:23:54;0.90;99.90
5588;DHT22;2816;49.778;9.986;2024-03-08T05:26:22;0.90;99.90
5588;DHT22;2816;49.778;9.986;2024-03-08T05:28:49;1.00;99.90
5588;DHT22;2816;49.778;9.986;2024-03-08T05:31:19;1.00;99.90
5588;DHT22;2816;49.778;9.986;2024-03-08T05:33:48;0.90;99.90
5588;DHT22;2816;49.778;9.986;2024-03-08T05:36:15;1.00;99.90
5588;DHT22;2816;49.778;9.986;2024-03-08T05:38:43;1.00;99.90
5588;DHT22;2816;49.778;9.986;2024-03-08T05:41:10;1.00;99.90
5588;DHT22;2816;49.778;9.986;2024-03-08T05:43:40;1.10;99.90
5588;DHT22;2816;49.778;9.986;2024-03-08T05:46:07;1.00;99.90
5588;DHT22;2816;49.778;9.986;2024-03-08T05:48:35;1.00;99.90
5588;DHT22;2816;49.778;9.986;2024-03-08T05:51:03;0.90;99.90
5588;DHT22;2816;49.778;9.986;2024-03-08T05:53:30;1.00;99.90
5588;DHT22;2816;49.778;9.986;2024-03-08T05:55:57;0.90;99.90
5588;DHT22;2816;49.778;9.986;2024-03-08T05:58:25;1.00;99.90
5588;DHT22;2816;49.778;9.986;2024-03-08T06:00:53;1.00;99.90
5588;DHT22;2816;49.778;9.986;2024-03-08T06:03:20;1.00;99.90
5588;DHT22;2816;49.778;9.986;2024-03-08T06:05:48;0.90;99.90
5588;DHT22;2816;49.778;9.986;2024-03-08T06:08:15;0.90;99.90
5588;DHT22;2816;49.778;9.986;2024-03-08T06:10:42;0.90;99.90
5588;DHT22;2816;49.778;9.986;2024-03-08T06:13:08;0.90;99.90
5588;DHT22;2816;49.778;9.986;2024-03-08T06:15:37;0.90;99.90
5588;DHT22;2816;49.778;9.986;2024-03-08T06:18:06;1.00;99.90
5588;DHT22;2816;49.778;9.986;2024-03-08T06:20:36;0.90;99.90
5588;DHT22;2816;49.778;9.986;2024-03-08T06:23:03;0.90;99.90
5588;DHT22;2816;49.778;9.986;2024-03-08T06:25:30;0.90;99.90
5588;DHT22;2816;49.778;9.986;2024-03-08T06:27:57;0.90;99.90
5588;DHT22;2816;49.778;9.986;2024-03-08T06:30:24;1.00;99.90
5588;DHT22;2816;49.778;9.986;2024-03-08T06:32:50;1.00;99.90
5588;DHT22;2816;49.778;9.986;2024-03-08T06:35:19;1.10;99.90
5588;DHT22;2816;49.778;9.986;2024-03-08T06:37:46;1.10;99.90
5588;DHT22;2816;49.778;9.986;2024-03-08T06:40:13;1.10;99.90
5588;DHT22;2816;49.778;9.986;2024-03-08T06:42:40;1.10;99.90
5588;DHT22;2816;49.778;9.986;2024-03-08T06:45:08;1.20;99.90
5588;DHT22;2816;49.778;9.986;2024-03-08T06:47:36;1.20;99.90
5588;DHT22;2816;49.778;9.986;2024-03-08T06:50:03;1.20;99.90
5588;DHT22;2816;49.778;9.986;2024-03-08T06:52:32;1.20;99.90
5588;DHT22;2816;49.778;9.986;2024-03-08T06:54:59;1.20;99.90
5588;DHT22;2816;49.778;9.986;2024-03-08T06:57:27;1.30;99.90
5588;DHT22;2816;49.778;9.986;2024-03-08T06:59:55;1.30;99.90
5588;DHT22;2816;49.778;9.986;2024-03-08T07:02:22;1.20;99.90
5588;DHT22;2816;49.778;9.986;2024-03-08T07:04:50;1.30;99.90
5588;DHT22;2816;49.778;9.986;2024-03-08T07:07:18;1.30;99.90
5588;DHT22;2816;49.778;9.986;2024-03-08T07:09:47;1.40;99.90
5588;DHT22;2816;49.778;9.986;2024-03-08T07:12:15;1.50;99.90
5588;DHT22;2816;49.778;9.986;2024-03-08T07:14:42;1.50;99.90
5588;DHT22;2816;49.778;9.986;2024-03-08T07:17:11;1.60;99.90
5588;DHT22;2816;49.778;9.986;2024-03-08T07:19:38;1.60;99.90
5588;DHT22;2816;49.778;9.986;2024-03-08T07:22:06;1.70;99.90
5588;DHT22;2816;49.778;9.986;2024-03-08T07:24:35;1.70;99.90
5588;DHT22;2816;49.778;9.986;2024-03-08T07:27:22;1.70;99.90
5588;DHT22;2816;49.778;9.986;2024-03-08T07:29:49;1.90;99.90
5588;DHT22;2816;49.778;9.986;2024-03-08T07:32:16;1.90;99.90
5588;DHT22;2816;49.778;9.986;2024-03-08T07:34:47;1.90;99.90
5588;DHT22;2816;49.778;9.986;2024-03-08T07:37:15;1.90;99.90
5588;DHT22;2816;49.778;9.986;2024-03-08T07:39:42;1.90;99.90
5588;DHT22;2816;49.778;9.986;2024-03-08T07:42:09;2.00;99.90
5588;DHT22;2816;49.778;9.986;2024-03-08T07:44:38;2.00;99.90
5588;DHT22;2816;49.778;9.986;2024-03-08T07:47:05;2.10;99.90
5588;DHT22;2816;49.778;9.986;2024-03-08T07:49:35;2.10;99.90
5588;DHT22;2816;49.778;9.986;2024-03-08T07:52:03;2.20;99.90
5588;DHT22;2816;49.778;9.986;2024-03-08T07:54:33;2.30;99.90
5588;DHT22;2816;49.778;9.986;2024-03-08T07:57:00;2.40;99.90
5588;DHT22;2816;49.778;9.986;2024-03-08T07:59:28;2.40;99.90
5588;DHT22;2816;49.778;9.986;2024-03-08T08:01:56;2.40;99.90
5588;DHT22;2816;49.778;9.986;2024-03-08T08:04:23;2.50;99.90
5588;DHT22;2816;49.778;9.986;2024-03-08T08:06:50;2.60;99.90
5588;DHT22;2816;49.778;9.986;2024-03-08T08:09:17;2.70;99.90
5588;DHT22;2816;49.778;9.986;2024-03-08T08:11:54;2.70;99.90
5588;DHT22;2816;49.778;9.986;2024-03-08T08:14:21;2.80;99.90
5588;DHT22;2816;49.778;9.986;2024-03-08T08:16:48;2.90;99.90
5588;DHT22;2816;49.778;9.986;2024-03-08T08:19:19;2.90;99.90
5588;DHT22;2816;49.778;9.986;2024-03-08T08:21:46;3.00;99.90
5588;DHT22;2816;49.778;9.986;2024-03-08T08:24:13;3.10;99.90
5588;DHT22;2816;49.778;9.986;2024-03-08T08:26:40;3.20;99.90
5588;DHT22;2816;49.778;9.986;2024-03-08T08:29:07;3.30;99.90
5588;DHT22;2816;49.778;9.986;2024-03-08T08:31:34;3.30;99.90
5588;DHT22;2816;49.778;9.986;2024-03-08T08:34:00;3.40;99.90
5588;DHT22;2816;49.778;9.986;2024-03-08T08:36:30;3.40;99.90
5588;DHT22;2816;49.778;9.986;2024-03-08T08:38:57;3.40;99.90
5588;DHT22;2816;49.778;9.986;2024-03-08T08:41:25;3.60;99.90
5588;DHT22;2816;49.778;9.986;2024-03-08T08:43:52;3.70;99.90
5588;DHT22;2816;49.778;9.986;2024-03-08T08:46:19;3.80;99.90
5588;DHT22;2816;49.778;9.986;2024-03-08T08:48:47;3.90;99.90
5588;DHT22;2816;49.778;9.986;2024-03-08T08:51:14;3.90;99.90
5588;DHT22;2816;49.778;9.986;2024-03-08T08:53:42;4.00;99.90
5588;DHT22;2816;49.778;9.986;2024-03-08T08:56:11;4.00;99.90
5588;DHT22;2816;49.778;9.986;2024-03-08T08:58:39;4.20;99.90
5588;DHT22;2816;49.778;9.986;2024-03-08T09:01:06;4.20;99.90
5588;DHT22;2816;49.778;9.986;2024-03-08T09:03:35;4.30;99.90
5588;DHT22;2816;49.778;9.986;2024-03-08T09:06:03;4.40;99.90
5588;DHT22;2816;49.778;9.986;2024-03-08T09:08:30;4.50;99.90
5588;DHT22;2816;49.778;9.986;2024-03-08T09:10:58;4.50;99.90
5588;DHT22;2816;49.778;9.986;2024-03-08T09:13:26;4.60;99.90
5588;DHT22;2816;49.778;9.986;2024-03-08T09:15:53;4.80;99.90
5588;DHT22;2816;49.778;9.986;2024-03-08T09:18:20;4.90;99.90
5588;DHT22;2816;49.778;9.986;2024-03-08T09:20:47;4.90;99.90
5588;DHT22;2816;49.778;9.986;2024-03-08T09:23:14;4.90;99.90
5588;DHT22;2816;49.778;9.986;2024-03-08T09:25:43;5.10;99.90
5588;DHT22;2816;49.778;9.986;2024-03-08T09:28:12;5.10;99.90
5588;DHT22;2816;49.778;9.986;2024-03-08T09:30:39;5.20;99.90
5588;DHT22;2816;49.778;9.986;2024-03-08T09:33:06;5.30;99.90
5588;DHT22;2816;49.778;9.986;2024-03-08T09:35:33;5.30;99.90
5588;DHT22;2816;49.778;9.986;2024-03-08T09:38:00;5.30;99.90
5588;DHT22;2816;49.778;9.986;2024-03-08T09:40:27;5.50;99.90
5588;DHT22;2816;49.778;9.986;2024-03-08T09:42:55;5.50;99.90
5588;DHT22;2816;49.778;9.986;2024-03-08T09:45:25;5.60;99.90
5588;DHT22;2816;49.778;9.986;2024-03-08T09:47:52;5.70;99.90
5588;DHT22;2816;49.778;9.986;2024-03-08T09:50:20;5.80;99.90
5588;DHT22;2816;49.778;9.986;2024-03-08T09:52:48;5.90;99.90
5588;DHT22;2816;49.778;9.986;2024-03-08T09:55:16;6.00;99.90
5588;DHT22;2816;49.778;9.986;2024-03-08T09:57:48;6.10;99.90
5588;DHT22;2816;49.778;9.986;2024-03-08T10:00:30;6.30;99.90
5588;DHT22;2816;49.778;9.986;2024-03-08T10:03:00;6.20;99.90
5588;DHT22;2816;49.778;9.986;2024-03-08T10:05:28;6.30;99.90
5588;DHT22;2816;49.778;9.986;2024-03-08T10:07:55;6.40;99.90
5588;DHT22;2816;49.778;9.986;2024-03-08T10:10:22;6.50;99.90
5588;DHT22;2816;49.778;9.986;2024-03-08T10:12:49;6.50;99.90
5588;DHT22;2816;49.778;9.986;2024-03-08T10:15:16;6.50;99.90
5588;DHT22;2816;49.778;9.986;2024-03-08T10:17:44;6.60;99.90
5588;DHT22;2816;49.778;9.986;2024-03-08T10:20:15;6.70;99.90
5588;DHT22;2816;49.778;9.986;2024-03-08T10:22:42;6.70;99.90
5588;DHT22;2816;49.778;9.986;2024-03-08T10:25:10;6.80;99.90
5588;DHT22;2816;49.778;9.986;2024-03-08T10:27:38;7.00;99.90
5588;DHT22;2816;49.778;9.986;2024-03-08T10:30:07;6.90;99.90
5588;DHT22;2816;49.778;9.986;2024-03-08T10:32:38;6.90;99.90
5588;DHT22;2816;49.778;9.986;2024-03-08T10:35:07;6.90;99.90
5588;DHT22;2816;49.778;9.986;2024-03-08T10:37:39;7.10;99.90
5588;DHT22;2816;49.778;9.986;2024-03-08T10:40:16;7.10;99.90
5588;DHT22;2816;49.778;9.986;2024-03-08T10:42:51;7.10;99.90
5588;DHT22;2816;49.778;9.986;2024-03-08T10:45:26;7.20;99.90
5588;DHT22;2816;49.778;9.986;2024-03-08T10:48:07;7.40;99.90
5588;DHT22;2816;49.778;9.986;2024-03-08T10:50:37;7.40;99.90
5588;DHT22;2816;49.778;9.986;2024-03-08T10:53:06;7.50;99.90
5588;DHT22;2816;49.778;9.986;2024-03-08T10:55:33;7.60;99.90
5588;DHT22;2816;49.778;9.986;2024-03-08T10:58:02;7.60;99.90
5588;DHT22;2816;49.778;9.986;2024-03-08T11:00:29;7.60;99.90
5588;DHT22;2816;49.778;9.986;2024-03-08T11:02:57;7.80;99.90
5588;DHT22;2816;49.778;9.986;2024-03-08T11:05:35;7.80;99.90
5588;DHT22;2816;49.778;9.986;2024-03-08T11:08:15;8.00;99.90
5588;DHT22;2816;49.778;9.986;2024-03-08T11:10:46;8.10;99.90
5588;DHT22;2816;49.778;9.986;2024-03-08T11:13:35;8.10;99.90
5588;DHT22;2816;49.778;9.986;2024-03-08T11:16:02;8.40;99.90
5588;DHT22;2816;49.778;9.986;2024-03-08T11:18:32;8.50;99.90
5588;DHT22;2816;49.778;9.986;2024-03-08T11:21:02;8.50;99.90
5588;DHT22;2816;49.778;9.986;2024-03-08T11:23:34;8.60;99.90
5588;DHT22;2816;49.778;9.986;2024-03-08T11:26:02;8.50;99.90
5588;DHT22;2816;49.778;9.986;2024-03-08T11:28:34;8.60;99.90
5588;DHT22;2816;49.778;9.986;2024-03-08T11:31:23;9.10;99.90
5588;DHT22;2816;49.778;9.986;2024-03-08T11:33:51;9.30;99.90
5588;DHT22;2816;49.778;9.986;2024-03-08T11:36:21;9.50;99.90
5588;DHT22;2816;49.778;9.986;2024-03-08T11:38:50;9.30;99.90
5588;DHT22;2816;49.778;9.986;2024-03-08T11:41:19;9.40;99.90
5588;DHT22;2816;49.778;9.986;2024-03-08T11:43:46;9.60;99.90
5588;DHT22;2816;49.778;9.986;2024-03-08T11:46:14;9.80;99.90
5588;DHT22;2816;49.778;9.986;2024-03-08T11:48:44;9.80;99.90
5588;DHT22;2816;49.778;9.986;2024-03-08T11:51:12;9.80;99.90
5588;DHT22;2816;49.778;9.986;2024-03-08T11:53:39;9.90;99.90
5588;DHT22;2816;49.778;9.986;2024-03-08T11:56:09;10.10;99.90
5588;DHT22;2816;49.778;9.986;2024-03-08T11:58:37;10.10;99.90
5588;DHT22;2816;49.778;9.986;2024-03-08T12:01:05;10.10;99.90
5588;DHT22;2816;49.778;9.986;2024-03-08T12:03:32;10.30;99.90
5588;DHT22;2816;49.778;9.986;2024-03-08T12:06:00;10.40;99.90
5588;DHT22;2816;49.778;9.986;2024-03-08T12:08:30;10.40;99.90
5588;DHT22;2816;49.778;9.986;2024-03-08T12:10:57;10.30;99.90
5588;DHT22;2816;49.778;9.986;2024-03-08T12:13:27;10.40;99.90
5588;DHT22;2816;49.778;9.986;2024-03-08T12:15:56;10.60;99.90
5588;DHT22;2816;49.778;9.986;2024-03-08T12:18:25;10.80;99.90
5588;DHT22;2816;49.778;9.986;2024-03-08T12:21:04;10.90;99.90
5588;DHT22;2816;49.778;9.986;2024-03-08T12:23:33;10.90;99.90
5588;DHT22;2816;49.778;9.986;2024-03-08T12:26:09;11.00;99.90
5588;DHT22;2816;49.778;9.986;2024-03-08T12:28:40;11.20;99.80
5588;DHT22;2816;49.778;9.986;2024-03-08T12:31:07;11.20;99.90
5588;DHT22;2816;49.778;9.986;2024-03-08T12:33:36;11.40;99.70
5588;DHT22;2816;49.778;9.986;2024-03-08T12:36:03;11.50;98.10
5588;DHT22;2816;49.778;9.986;2024-03-08T12:38:32;11.50;99.70
5588;DHT22;2816;49.778;9.986;2024-03-08T12:41:01;11.60;98.90
5588;DHT22;2816;49.778;9.986;2024-03-08T12:43:29;11.70;98.80
5588;DHT22;2816;49.778;9.986;2024-03-08T12:45:58;11.70;98.60
5588;DHT22;2816;49.778;9.986;2024-03-08T12:48:26;11.70;97.80
5588;DHT22;2816;49.778;9.986;2024-03-08T12:50:53;11.70;98.00
5588;DHT22;2816;49.778;9.986;2024-03-08T12:53:20;11.80;98.00
5588;DHT22;2816;49.778;9.986;2024-03-08T12:55:48;12.00;97.60
5588;DHT22;2816;49.778;9.986;2024-03-08T12:58:15;12.10;97.40
5588;DHT22;2816;49.778;9.986;2024-03-08T13:00:43;12.10;97.10
5588;DHT22;2816;49.778;9.986;2024-03-08T13:03:11;12.00;97.40
5588;DHT22;2816;49.778;9.986;2024-03-08T13:05:38;12.20;96.70
5588;DHT22;2816;49.778;9.986;2024-03-08T13:08:08;12.30;96.60
5588;DHT22;2816;49.778;9.986;2024-03-08T13:10:38;12.50;96.50
5588;DHT22;2816;49.778;9.986;2024-03-08T13:13:05;12.50;96.50
5588;DHT22;2816;49.778;9.986;2024-03-08T13:15:32;12.60;98.10
5588;DHT22;2816;49.778;9.986;2024-03-08T13:17:59;12.40;96.40
5588;DHT22;2816;49.778;9.986;2024-03-08T13:20:28;12.40;96.20
5588;DHT22;2816;49.778;9.986;2024-03-08T13:22:55;12.40;96.60
5588;DHT22;2816;49.778;9.986;2024-03-08T13:25:22;12.70;96.60
5588;DHT22;2816;49.778;9.986;2024-03-08T13:27:49;12.80;96.30
5588;DHT22;2816;49.778;9.986;2024-03-08T13:30:16;13.00;95.40
5588;DHT22;2816;49.778;9.986;2024-03-08T13:32:44;13.20;95.40
5588;DHT22;2816;49.778;9.986;2024-03-08T13:35:11;13.00;96.90
5588;DHT22;2816;49.778;9.986;2024-03-08T13:37:41;12.90;96.90
5588;DHT22;2816;49.778;9.986;2024-03-08T13:40:09;12.70;95.90
5588;DHT22;2816;49.778;9.986;2024-03-08T13:42:39;12.70;94.50
5588;DHT22;2816;49.778;9.986;2024-03-08T13:45:08;13.00;93.80
5588;DHT22;2816;49.778;9.986;2024-03-08T13:47:36;13.20;94.60
5588;DHT22;2816;49.778;9.986;2024-03-08T13:50:05;13.40;93.60
5588;DHT22;2816;49.778;9.986;2024-03-08T13:52:32;13.30;94.00
5588;DHT22;2816;49.778;9.986;2024-03-08T13:55:01;13.30;94.10
5588;DHT22;2816;49.778;9.986;2024-03-08T13:57:28;13.30;93.40
5588;DHT22;2816;49.778;9.986;2024-03-08T13:59:55;13.40;94.60
5588;DHT22;2816;49.778;9.986;2024-03-08T14:02:22;13.40;93.40
5588;DHT22;2816;49.778;9.986;2024-03-08T14:04:53;13.40;93.40
5588;DHT22;2816;49.778;9.986;2024-03-08T14:07:20;13.50;93.40
5588;DHT22;2816;49.778;9.986;2024-03-08T14:09:48;13.40;94.10
5588;DHT22;2816;49.778;9.986;2024-03-08T14:12:19;13.40;94.10
5588;DHT22;2816;49.778;9.986;2024-03-08T14:14:46;13.50;94.60
5588;DHT22;2816;49.778;9.986;2024-03-08T14:17:13;13.10;94.50
5588;DHT22;2816;49.778;9.986;2024-03-08T14:19:43;13.10;93.70
5588;DHT22;2816;49.778;9.986;2024-03-08T14:22:10;13.30;92.50
5588;DHT22;2816;49.778;9.986;2024-03-08T14:24:40;12.80;95.00
5588;DHT22;2816;49.778;9.986;2024-03-08T14:27:07;13.30;92.30
5588;DHT22;2816;49.778;9.986;2024-03-08T14:29:36;13.60;92.00
5588;DHT22;2816;49.778;9.986;2024-03-08T14:32:04;13.60;92.20
5588;DHT22;2816;49.778;9.986;2024-03-08T14:34:31;13.50;92.70
5588;DHT22;2816;49.778;9.986;2024-03-08T14:36:59;13.50;92.70
5588;DHT22;2816;49.778;9.986;2024-03-08T14:39:30;13.50;92.30
5588;DHT22;2816;49.778;9.986;2024-03-08T14:41:59;13.60;92.00
5588;DHT22;2816;49.778;9.986;2024-03-08T14:44:27;13.50;91.90
5588;DHT22;2816;49.778;9.986;2024-03-08T14:46:57;13.20;93.20
5588;DHT22;2816;49.778;9.986;2024-03-08T14:49:24;13.30;92.40
5588;DHT22;2816;49.778;9.986;2024-03-08T14:51:51;13.50;92.00
5588;DHT22;2816;49.778;9.986;2024-03-08T14:54:19;13.50;93.60
5588;DHT22;2816;49.778;9.986;2024-03-08T14:56:48;13.40;93.00
5588;DHT22;2816;49.778;9.986;2024-03-08T14:59:16;13.30;92.80
5588;DHT22;2816;49.778;9.986;2024-03-08T15:01:45;13.30;92.20
5588;DHT22;2816;49.778;9.986;2024-03-08T15:04:13;13.20;92.70
5588;DHT22;2816;49.778;9.986;2024-03-08T15:06:41;13.40;92.30
5588;DHT22;2816;49.778;9.986;2024-03-08T15:09:08;13.40;92.40
5588;DHT22;2816;49.778;9.986;2024-03-08T15:11:44;13.40;92.60
5588;DHT22;2816;49.778;9.986;2024-03-08T15:14:11;13.20;92.40
5588;DHT22;2816;49.778;9.986;2024-03-08T15:16:39;13.10;92.00
5588;DHT22;2816;49.778;9.986;2024-03-08T15:19:08;13.10;91.90
5588;DHT22;2816;49.778;9.986;2024-03-08T15:21:39;13.00;91.40
5588;DHT22;2816;49.778;9.986;2024-03-08T15:24:06;12.90;91.90
5588;DHT22;2816;49.778;9.986;2024-03-08T15:26:41;12.90;92.70
5588;DHT22;2816;49.778;9.986;2024-03-08T15:29:09;13.00;91.90
5588;DHT22;2816;49.778;9.986;2024-03-08T15:31:38;12.80;92.50
5588;DHT22;2816;49.778;9.986;2024-03-08T15:34:08;12.70;92.00
5588;DHT22;2816;49.778;9.986;2024-03-08T15:36:38;12.60;92.30
5588;DHT22;2816;49.778;9.986;2024-03-08T15:39:08;12.60;92.60
5588;DHT22;2816;49.778;9.986;2024-03-08T15:41:37;12.60;92.50
5588;DHT22;2816;49.778;9.986;2024-03-08T15:44:04;12.70;93.10
5588;DHT22;2816;49.778;9.986;2024-03-08T15:46:31;12.40;93.20
5588;DHT22;2816;49.778;9.986;2024-03-08T15:48:58;12.40;93.40
5588;DHT22;2816;49.778;9.986;2024-03-08T15:51:25;12.40;93.20
5588;DHT22;2816;49.778;9.986;2024-03-08T15:53:53;12.30;92.90
5588;DHT22;2816;49.778;9.986;2024-03-08T15:56:21;12.20;92.80
5588;DHT22;2816;49.778;9.986;2024-03-08T15:58:49;12.00;93.30
5588;DHT22;2816;49.778;9.986;2024-03-08T16:01:16;11.70;94.70
5588;DHT22;2816;49.778;9.986;2024-03-08T16:03:43;11.70;94.00
5588;DHT22;2816;49.778;9.986;2024-03-08T16:06:13;11.80;93.30
5588;DHT22;2816;49.778;9.986;2024-03-08T16:08:40;11.60;94.80
5588;DHT22;2816;49.778;9.986;2024-03-08T16:11:10;11.50;95.60
5588;DHT22;2816;49.778;9.986;2024-03-08T16:13:36;11.40;94.10
5588;DHT22;2816;49.778;9.986;2024-03-08T16:16:04;11.50;93.90
5588;DHT22;2816;49.778;9.986;2024-03-08T16:18:31;11.40;94.60
5588;DHT22;2816;49.778;9.986;2024-03-08T16:21:00;11.30;94.80